Time;durP1;ratioP1;P1;durP2;ratioP2;P2;SDS_P1;SDS_P2;PMS_P1;PMS_P2;Temp;Humidity;BMP_temperature;BMP_pressure;BME280_temperature;BME280_humidity;BME280_pressure;Samples;Min_cycle;Max_cycle;Signal;HPM_P1;HPM_P2
2023/12/05 00:01:33;;;;;;;4.10;2.30;;;4.00;37.50;;;;;;5033193;28;20193;-53
2023/12/05 00:03:59;;;;;;;2.10;1.73;;;4.00;37.30;;;;;;5033161;28;20207;-54
2023/12/05 00:06:25;;;;;;;4.20;2.45;;;4.00;37.30;;;;;;5033030;28;20412;-51
2023/12/05 00:08:50;;;;;;;2.60;1.73;;;4.00;37.60;;;;;;5033161;28;20186;-54
2023/12/05 00:11:16;;;;;;;3.60;3.30;;;4.00;37.60;;;;;;5032931;28;20177;-57
2023/12/05 00:13:42;;;;;;;3.40;3.20;;;4.00;37.70;;;;;;5032959;28;20189;-51
2023/12/05 00:16:09;;;;;;;6.53;2.80;;;3.90;37.70;;;;;;5032857;28;20411;-56
2023/12/05 00:18:36;;;;;;;1.27;0.88;;;3.90;37.60;;;;;;5032120;28;20463;-54
2023/12/05 00:21:02;;;;;;;1.45;1.13;;;3.90;37.70;;;;;;5032758;28;20182;-55
2023/12/05 00:23:28;;;;;;;2.00;1.80;;;3.90;37.80;;;;;;5032789;28;20186;-53
2023/12/05 00:25:53;;;;;;;1.83;1.70;;;3.90;37.80;;;;;;5032533;28;20170;-50
2023/12/05 00:28:19;;;;;;;4.30;3.13;;;3.90;37.80;;;;;;5032801;28;20174;-51
2023/12/05 00:30:45;;;;;;;1.97;1.80;;;3.90;38.00;;;;;;5032674;28;20170;-55
2023/12/05 00:33:11;;;;;;;8.93;3.90;;;3.90;38.00;;;;;;5032612;28;20185;-54
2023/12/05 00:35:36;;;;;;;3.40;2.83;;;3.90;38.00;;;;;;5032533;28;20201;-51
2023/12/05 00:38:02;;;;;;;2.23;2.07;;;3.90;37.90;;;;;;5032485;28;20196;-51
2023/12/05 00:40:29;;;;;;;3.30;1.80;;;3.80;37.90;;;;;;5032422;28;20173;-56
2023/12/05 00:42:58;;;;;;;2.38;2.15;;;3.70;38.20;;;;;;5032447;28;20194;-59
2023/12/05 00:45:24;;;;;;;3.97;2.47;;;3.70;38.30;;;;;;5032325;28;20170;-49
2023/12/05 00:47:53;;;;;;;1.00;0.90;;;3.70;38.40;;;;;;5032485;28;20544;-52
2023/12/05 00:50:19;;;;;;;9.48;5.00;;;3.80;38.20;;;;;;5032417;28;20416;-57
2023/12/05 00:52:46;;;;;;;3.80;2.38;;;3.90;38.10;;;;;;5032292;28;20691;-53
2023/12/05 00:55:12;;;;;;;2.45;2.30;;;3.80;38.10;;;;;;5032285;28;20200;-54
2023/12/05 00:57:37;;;;;;;3.00;2.78;;;3.80;38.10;;;;;;5031982;28;20198;-50
2023/12/05 01:00:05;;;;;;;2.10;1.90;;;3.80;38.10;;;;;;5032339;28;20161;-49
2023/12/05 01:02:31;;;;;;;1.73;1.63;;;3.90;38.10;;;;;;5032154;28;20189;-58
2023/12/05 01:04:57;;;;;;;11.30;3.73;;;3.80;38.20;;;;;;5032203;28;20228;-51
2023/12/05 01:07:22;;;;;;;4.17;3.77;;;3.70;38.20;;;;;;5031830;28;20174;-51
2023/12/05 01:09:48;;;;;;;0.90;0.50;;;3.70;38.40;;;;;;5032097;28;20174;-54
2023/12/05 01:12:14;;;;;;;5.43;2.53;;;3.80;38.40;;;;;;5032064;28;20184;-53
2023/12/05 01:14:40;;;;;;;3.72;2.10;;;3.90;38.00;;;;;;5032146;28;20257;-49
2023/12/05 01:17:06;;;;;;;1.53;1.37;;;3.80;38.30;;;;;;5031887;28;20293;-55
2023/12/05 01:19:31;;;;;;;3.70;2.00;;;3.80;38.20;;;;;;5032095;28;20174;-56
2023/12/05 01:21:57;;;;;;;1.87;1.67;;;3.80;38.10;;;;;;5031762;28;20177;-51
2023/12/05 01:24:23;;;;;;;10.53;2.77;;;3.80;38.30;;;;;;5032218;28;20255;-56
2023/12/05 01:26:49;;;;;;;2.93;2.73;;;3.70;38.30;;;;;;5031864;28;20264;-56
2023/12/05 01:29:14;;;;;;;6.93;1.67;;;3.70;38.40;;;;;;5034335;28;20260;-50
2023/12/05 01:31:40;;;;;;;4.47;4.07;;;3.70;38.50;;;;;;5038449;28;20178;-51
2023/12/05 01:34:06;;;;;;;2.00;1.90;;;3.70;39.00;;;;;;5038438;28;20217;-55
2023/12/05 01:36:32;;;;;;;1.10;0.90;;;3.70;38.50;;;;;;5038136;28;20913;-51
2023/12/05 01:38:57;;;;;;;12.77;2.27;;;3.70;38.50;;;;;;5038428;28;20231;-51
2023/12/05 01:41:23;;;;;;;2.70;2.50;;;3.70;38.50;;;;;;5038556;28;20495;-56
2023/12/05 01:43:49;;;;;;;9.97;2.73;;;3.70;38.30;;;;;;5038376;28;20190;-53
2023/12/05 01:46:16;;;;;;;10.93;5.50;;;3.70;38.50;;;;;;5038218;28;20589;-50
2023/12/05 01:48:44;;;;;;;1.35;1.00;;;3.70;38.20;;;;;;5038387;28;20173;-57
2023/12/05 01:51:10;;;;;;;3.63;1.70;;;3.70;38.30;;;;;;5038310;28;20174;-56
2023/12/05 01:53:39;;;;;;;3.00;0.90;;;3.70;38.40;;;;;;5038250;28;20595;-50
2023/12/05 01:56:06;;;;;;;2.08;1.40;;;3.70;38.60;;;;;;5038197;28;20189;-51
2023/12/05 01:58:34;;;;;;;1.55;1.45;;;3.70;38.20;;;;;;5038104;28;20201;-55
2023/12/05 02:01:01;;;;;;;10.07;3.15;;;3.70;38.50;;;;;;5038217;28;20174;-51
2023/12/05 02:03:27;;;;;;;1.88;1.30;;;3.80;38.40;;;;;;5038165;28;20525;-50
2023/12/05 02:05:54;;;;;;;2.20;1.83;;;3.90;38.30;;;;;;5038033;28;20170;-53
2023/12/05 02:08:22;;;;;;;12.75;3.58;;;3.80;38.00;;;;;;5038157;28;20205;-59
2023/12/05 02:10:48;;;;;;;1.65;1.55;;;3.80;38.10;;;;;;5038149;28;20249;-51
2023/12/05 02:13:13;;;;;;;1.97;1.77;;;3.80;38.10;;;;;;5038050;28;20281;-53
2023/12/05 02:15:39;;;;;;;5.80;2.80;;;3.80;38.10;;;;;;5037930;28;20224;-51
2023/12/05 02:18:16;;;;;;;1.73;1.63;;;3.80;38.00;;;;;;5037986;28;20240;-53
2023/12/05 02:20:53;;;;;;;3.33;2.70;;;3.80;38.00;;;;;;5037958;28;20966;-52
2023/12/05 02:23:53;;;;;;;1.17;1.05;;;3.80;38.10;;;;;;5037948;28;20201;-53
2023/12/05 02:26:50;;;;;;;1.42;1.33;;;3.80;38.10;;;;;;5037932;28;20173;-53
2023/12/05 02:29:16;;;;;;;2.35;1.20;;;3.70;38.30;;;;;;5038024;28;20173;-50
2023/12/05 02:31:41;;;;;;;1.27;0.93;;;3.60;38.50;;;;;;5037960;28;20532;-57
2023/12/05 02:34:07;;;;;;;6.20;0.73;;;3.60;38.60;;;;;;5037935;28;20432;-57
2023/12/05 02:37:14;;;;;;;1.95;1.15;;;3.60;38.50;;;;;;5037643;28;20162;-51
2023/12/05 02:39:56;;;;;;;3.83;3.15;;;3.60;38.30;;;;;;5037858;28;20184;-55
2023/12/05 02:42:26;;;;;;;4.85;2.92;;;3.50;38.50;;;;;;5033972;28;20249;-51
2023/12/05 02:44:54;;;;;;;2.50;2.30;;;3.60;38.60;;;;;;5034720;28;20644;-53
2023/12/05 02:47:23;;;;;;;5.45;2.72;;;3.60;38.60;;;;;;5034456;28;20196;-57
2023/12/05 02:49:49;;;;;;;3.13;1.00;;;3.50;38.60;;;;;;5034902;28;20537;-50
2023/12/05 02:52:15;;;;;;;4.30;1.70;;;3.50;38.70;;;;;;5034510;28;20249;-54
2023/12/05 02:54:40;;;;;;;8.37;3.37;;;3.50;38.70;;;;;;5034591;28;20216;-53
2023/12/05 02:57:06;;;;;;;1.03;0.57;;;3.60;38.80;;;;;;5034332;28;20808;-51
2023/12/05 02:59:32;;;;;;;2.97;2.40;;;3.60;38.70;;;;;;5034512;28;20185;-57
2023/12/05 03:01:58;;;;;;;0.93;0.70;;;3.70;38.40;;;;;;5034282;28;20185;-58
2023/12/05 03:04:23;;;;;;;1.47;1.13;;;3.80;38.20;;;;;;5034378;28;20220;-52
2023/12/05 03:06:49;;;;;;;2.17;1.90;;;3.80;38.00;;;;;;5034175;28;20795;-54
2023/12/05 03:09:15;;;;;;;2.13;1.40;;;3.80;37.90;;;;;;5034307;28;20172;-54
2023/12/05 03:11:41;;;;;;;2.60;1.43;;;3.80;38.10;;;;;;5034225;28;20488;-52
2023/12/05 03:14:06;;;;;;;5.10;2.23;;;3.80;38.00;;;;;;5034142;28;20190;-50
2023/12/05 03:16:32;;;;;;;3.57;1.90;;;3.80;38.20;;;;;;5033870;28;20158;-56
2023/12/05 03:18:58;;;;;;;6.67;2.77;;;3.70;38.10;;;;;;5034134;28;20411;-50
2023/12/05 03:21:24;;;;;;;8.53;3.60;;;3.80;38.10;;;;;;5033918;28;20208;-53
2023/12/05 03:23:49;;;;;;;2.67;2.47;;;3.80;38.00;;;;;;5033933;28;20277;-57
2023/12/05 03:26:20;;;;;;;2.00;1.67;;;3.90;38.80;;;;;;5033843;28;20492;-51
2023/12/05 03:28:47;;;;;;;2.58;2.38;;;3.80;38.20;;;;;;5034078;28;20256;-54
2023/12/05 03:31:13;;;;;;;2.55;2.35;;;3.80;38.30;;;;;;5033854;28;20197;-51
2023/12/05 03:33:39;;;;;;;3.30;1.43;;;3.90;38.20;;;;;;5033785;28;20281;-51
2023/12/05 03:36:05;;;;;;;0.90;0.60;;;3.90;38.10;;;;;;5033651;28;20632;-53
2023/12/05 03:38:31;;;;;;;7.03;3.97;;;4.00;38.00;;;;;;5033595;28;20975;-56
2023/12/05 03:40:57;;;;;;;1.60;1.07;;;3.90;38.10;;;;;;5033800;28;20277;-51
2023/12/05 03:43:23;;;;;;;1.90;1.80;;;3.80;38.10;;;;;;5033642;28;20507;-55
2023/12/05 03:45:49;;;;;;;2.38;1.58;;;3.70;38.20;;;;;;5033436;28;20174;-54
2023/12/05 03:48:14;;;;;;;5.72;2.67;;;3.60;38.60;;;;;;5033805;28;20181;-50
2023/12/05 03:50:40;;;;;;;3.30;1.80;;;3.60;38.70;;;;;;5033525;28;20174;-53
2023/12/05 03:53:06;;;;;;;2.00;1.80;;;3.60;38.50;;;;;;5032363;28;20204;-55
2023/12/05 03:55:35;;;;;;;4.90;2.57;;;3.60;38.60;;;;;;5033351;28;20413;-54
2023/12/05 03:58:01;;;;;;;5.07;1.15;;;3.60;38.60;;;;;;5033318;28;20200;-53
2023/12/05 04:00:27;;;;;;;2.60;2.40;;;3.70;38.30;;;;;;5033318;28;20201;-56
2023/12/05 04:02:53;;;;;;;1.00;0.70;;;3.80;38.40;;;;;;5033301;28;20209;-51
2023/12/05 04:05:18;;;;;;;1.30;1.10;;;3.80;38.10;;;;;;5033240;28;20447;-56
2023/12/05 04:07:45;;;;;;;1.50;1.40;;;3.80;38.00;;;;;;5033093;28;20702;-56
2023/12/05 04:10:10;;;;;;;1.60;1.30;;;3.90;38.00;;;;;;5033209;28;20952;-51
2023/12/05 04:12:38;;;;;;;0.90;0.60;;;3.90;37.80;;;;;;5033109;28;20209;-52
2023/12/05 04:15:04;;;;;;;12.68;1.83;;;3.90;37.60;;;;;;5033015;28;20412;-56
2023/12/05 04:17:30;;;;;;;1.00;0.77;;;3.90;38.00;;;;;;5032821;28;20211;-54
2023/12/05 04:19:56;;;;;;;2.37;0.97;;;3.80;38.00;;;;;;5033125;28;20174;-50
2023/12/05 04:22:21;;;;;;;3.77;2.67;;;3.70;38.00;;;;;;5032731;28;20584;-54
2023/12/05 04:24:47;;;;;;;8.23;2.37;;;3.80;38.10;;;;;;5033285;28;20244;-54
2023/12/05 04:27:13;;;;;;;1.87;1.63;;;3.80;37.80;;;;;;5032538;28;20205;-49
2023/12/05 04:29:39;;;;;;;2.30;1.60;;;3.80;37.70;;;;;;5032755;28;20184;-53
2023/12/05 04:32:06;;;;;;;2.20;2.10;;;3.80;37.60;;;;;;5032724;28;21073;-59
2023/12/05 04:34:32;;;;;;;2.80;2.60;;;3.80;37.60;;;;;;5032632;28;20781;-51
2023/12/05 04:36:58;;;;;;;4.45;2.42;;;3.80;37.70;;;;;;5032419;28;20664;-58
2023/12/05 04:39:23;;;;;;;2.50;1.13;;;3.70;37.80;;;;;;5032664;28;20177;-57
2023/12/05 04:41:49;;;;;;;2.23;1.43;;;3.60;37.90;;;;;;5032529;28;20177;-51
2023/12/05 04:44:15;;;;;;;4.87;3.90;;;3.70;38.10;;;;;;5032482;28;20568;-54
2023/12/05 04:46:41;;;;;;;0.73;0.30;;;3.70;37.80;;;;;;5032411;28;20637;-58
2023/12/05 04:49:07;;;;;;;6.47;3.33;;;3.70;38.40;;;;;;5032475;28;20166;-51
2023/12/05 04:51:33;;;;;;;1.80;1.43;;;3.70;37.90;;;;;;5032505;28;20180;-51
2023/12/05 04:53:59;;;;;;;2.60;2.05;;;3.80;37.80;;;;;;5032314;28;20439;-54
2023/12/05 04:56:26;;;;;;;4.20;1.42;;;3.80;37.70;;;;;;5032151;28;20178;-50
2023/12/05 04:58:52;;;;;;;3.10;2.17;;;3.80;37.80;;;;;;5030907;28;20676;-49
2023/12/05 05:01:18;;;;;;;1.13;1.03;;;3.70;37.80;;;;;;5032252;28;20185;-56
2023/12/05 05:03:43;;;;;;;3.93;3.03;;;3.80;37.80;;;;;;5031726;28;20272;-56
2023/12/05 05:06:10;;;;;;;1.90;1.13;;;3.80;37.60;;;;;;5032084;28;20910;-51
2023/12/05 05:08:36;;;;;;;0.90;0.70;;;3.70;37.70;;;;;;5032080;28;20182;-49
2023/12/05 05:11:01;;;;;;;2.73;1.13;;;3.70;37.70;;;;;;5032126;28;20224;-57
2023/12/05 05:13:27;;;;;;;4.20;3.27;;;3.80;37.50;;;;;;5032037;28;20193;-58
2023/12/05 05:15:53;;;;;;;1.13;0.83;;;3.70;37.70;;;;;;5031990;28;20170;-50
2023/12/05 05:18:18;;;;;;;1.20;1.10;;;3.70;37.80;;;;;;5031937;28;20200;-54
2023/12/05 05:20:44;;;;;;;1.97;1.87;;;3.70;37.80;;;;;;5031936;28;20165;-54
2023/12/05 05:23:11;;;;;;;4.00;3.60;;;3.70;37.60;;;;;;5031958;28;20197;-50
2023/12/05 05:25:36;;;;;;;0.80;0.40;;;3.70;37.80;;;;;;5031765;28;20172;-51
2023/12/05 05:28:02;;;;;;;0.93;0.77;;;3.70;38.00;;;;;;5031990;28;20178;-56
2023/12/05 05:30:28;;;;;;;1.23;0.80;;;3.80;37.70;;;;;;5032008;28;20260;-52
2023/12/05 05:32:54;;;;;;;2.47;2.27;;;3.80;37.70;;;;;;5031778;28;20535;-50
2023/12/05 05:35:19;;;;;;;2.70;1.40;;;3.80;37.70;;;;;;5031890;28;20169;-53
2023/12/05 05:37:45;;;;;;;10.00;3.03;;;3.80;37.50;;;;;;5031682;28;20202;-54
2023/12/05 05:40:11;;;;;;;3.13;1.17;;;3.80;37.50;;;;;;5031821;28;20205;-52
2023/12/05 05:42:37;;;;;;;1.20;1.10;;;3.90;37.50;;;;;;5031670;28;20452;-56
2023/12/05 05:45:05;;;;;;;2.20;2.00;;;3.80;37.50;;;;;;5031807;28;20204;-52
2023/12/05 05:47:31;;;;;;;2.05;1.85;;;3.90;37.60;;;;;;5031444;28;20261;-54
2023/12/05 05:49:57;;;;;;;1.23;0.95;;;3.80;37.70;;;;;;5031742;28;20547;-55
2023/12/05 05:52:23;;;;;;;1.42;1.02;;;3.80;37.70;;;;;;5031703;28;20629;-53
2023/12/05 05:54:50;;;;;;;1.30;1.02;;;3.80;37.60;;;;;;5031621;28;20250;-50
2023/12/05 05:57:16;;;;;;;1.10;0.80;;;3.80;37.80;;;;;;5031526;28;20308;-56
2023/12/05 05:59:43;;;;;;;8.10;4.05;;;3.90;37.90;;;;;;5031814;28;20170;-55
2023/12/05 06:02:09;;;;;;;2.53;1.23;;;3.90;37.50;;;;;;5031624;28;20166;-53
2023/12/05 06:04:40;;;;;;;4.03;1.63;;;4.00;37.50;;;;;;5031561;28;20209;-56
2023/12/05 06:07:06;;;;;;;2.55;1.05;;;4.00;37.40;;;;;;5031498;28;20170;-51
2023/12/05 06:09:32;;;;;;;1.95;1.70;;;3.90;37.60;;;;;;5031482;28;20205;-52
2023/12/05 06:11:58;;;;;;;4.53;2.83;;;3.90;37.60;;;;;;5031534;28;20247;-57
2023/12/05 06:14:23;;;;;;;0.90;0.57;;;4.00;37.50;;;;;;5031494;28;20197;-49
2023/12/05 06:16:49;;;;;;;1.67;1.57;;;4.00;37.60;;;;;;5033348;28;20917;-54
2023/12/05 06:19:15;;;;;;;1.27;1.17;;;4.00;37.80;;;;;;5035255;28;20178;-55
2023/12/05 06:21:41;;;;;;;3.33;2.10;;;4.00;37.70;;;;;;5035022;28;20186;-55
2023/12/05 06:24:08;;;;;;;3.07;2.77;;;4.00;37.80;;;;;;5035012;28;20201;-52
2023/12/05 06:26:34;;;;;;;2.38;2.17;;;4.00;37.90;;;;;;5034990;28;20173;-53
2023/12/05 06:29:04;;;;;;;6.40;2.63;;;3.90;38.20;;;;;;5035042;28;20174;-57
2023/12/05 06:31:29;;;;;;;1.00;0.75;;;4.00;38.30;;;;;;5034962;28;20217;-54
2023/12/05 06:33:55;;;;;;;4.77;3.97;;;3.90;38.10;;;;;;5034887;28;20213;-55
2023/12/05 06:36:21;;;;;;;0.90;0.50;;;3.90;38.50;;;;;;5034834;28;20644;-59
2023/12/05 06:38:46;;;;;;;1.53;1.43;;;3.90;38.60;;;;;;5034721;28;20790;-50
2023/12/05 06:41:12;;;;;;;3.33;3.03;;;3.90;38.50;;;;;;5034793;28;20169;-58
2023/12/05 06:43:38;;;;;;;1.97;1.77;;;3.90;38.60;;;;;;5034681;28;20200;-58
2023/12/05 06:46:04;;;;;;;2.20;1.30;;;3.90;38.60;;;;;;5034524;28;20177;-50
2023/12/05 06:48:29;;;;;;;1.70;1.40;;;3.80;38.50;;;;;;5034697;28;20178;-51
2023/12/05 06:50:55;;;;;;;5.40;2.63;;;3.90;38.90;;;;;;5034715;28;20247;-53
2023/12/05 06:53:21;;;;;;;1.57;1.40;;;3.90;38.80;;;;;;5034455;28;20195;-51
2023/12/05 06:55:48;;;;;;;1.17;0.60;;;3.90;38.90;;;;;;5034391;28;20181;-51
2023/12/05 06:58:14;;;;;;;1.98;1.88;;;3.80;38.60;;;;;;5034438;28;20200;-57
2023/12/05 07:00:39;;;;;;;1.57;1.47;;;3.70;39.10;;;;;;5034442;28;20178;-50
2023/12/05 07:03:05;;;;;;;4.00;3.57;;;3.80;38.90;;;;;;5034377;28;20793;-50
2023/12/05 07:05:31;;;;;;;9.00;4.10;;;3.70;39.00;;;;;;5034261;28;20661;-54
2023/12/05 07:07:57;;;;;;;1.63;1.53;;;3.80;38.80;;;;;;5034253;28;20178;-53
2023/12/05 07:10:23;;;;;;;1.43;1.33;;;3.70;39.00;;;;;;5034296;28;20666;-50
2023/12/05 07:12:49;;;;;;;0.80;0.40;;;3.70;38.90;;;;;;5034228;28;20695;-58
2023/12/05 07:15:15;;;;;;;1.43;1.10;;;3.80;38.80;;;;;;5034249;28;20181;-59
2023/12/05 07:17:40;;;;;;;1.57;1.13;;;3.80;38.60;;;;;;5032775;28;20483;-51
2023/12/05 07:20:06;;;;;;;2.30;2.10;;;3.80;38.60;;;;;;5034195;28;20170;-58
2023/12/05 07:22:33;;;;;;;3.90;2.13;;;3.80;38.80;;;;;;5033875;28;20759;-52
2023/12/05 07:24:59;;;;;;;3.40;0.85;;;3.80;38.80;;;;;;5034068;28;20257;-55
2023/12/05 07:27:25;;;;;;;1.40;1.30;;;3.90;38.50;;;;;;5033600;28;20256;-52
2023/12/05 07:29:50;;;;;;;4.80;3.93;;;3.90;38.50;;;;;;5033923;28;20488;-53
2023/12/05 07:32:16;;;;;;;2.90;2.50;;;3.90;38.50;;;;;;5033806;28;20173;-57
2023/12/05 07:34:43;;;;;;;4.23;2.53;;;3.90;38.50;;;;;;5034025;28;20177;-49
2023/12/05 07:37:08;;;;;;;2.45;2.25;;;3.90;38.20;;;;;;5033551;28;20201;-55
2023/12/05 07:39:35;;;;;;;0.87;0.60;;;3.90;38.40;;;;;;5032473;28;20243;-58
2023/12/05 07:42:01;;;;;;;1.90;1.65;;;3.90;38.20;;;;;;5033655;28;20401;-52
2023/12/05 07:44:27;;;;;;;2.43;2.23;;;4.00;38.10;;;;;;5033514;28;20220;-53
2023/12/05 07:46:54;;;;;;;1.08;0.98;;;4.00;37.90;;;;;;5033534;28;20245;-52
2023/12/05 07:49:20;;;;;;;1.63;1.52;;;4.00;38.00;;;;;;5033519;28;20604;-51
2023/12/05 07:51:47;;;;;;;3.67;3.37;;;4.00;37.80;;;;;;5033434;28;20238;-57
2023/12/05 07:54:12;;;;;;;3.67;3.38;;;3.90;38.10;;;;;;5033459;28;20557;-50
2023/12/05 07:56:38;;;;;;;2.57;2.00;;;4.00;38.50;;;;;;5033305;28;20170;-50
2023/12/05 07:59:04;;;;;;;1.00;0.83;;;3.90;38.40;;;;;;5033416;28;20201;-58
2023/12/05 08:01:30;;;;;;;1.10;1.00;;;4.00;38.30;;;;;;5033420;28;20178;-57
2023/12/05 08:03:57;;;;;;;1.10;1.00;;;4.00;38.30;;;;;;5033245;28;20795;-52
2023/12/05 08:06:24;;;;;;;2.83;1.70;;;4.00;38.30;;;;;;5033306;28;20569;-57
2023/12/05 08:08:50;;;;;;;1.48;1.38;;;4.10;38.60;;;;;;5033176;28;20169;-50
2023/12/05 08:11:17;;;;;;;2.75;1.23;;;4.10;38.60;;;;;;5033133;28;20192;-53
2023/12/05 08:13:42;;;;;;;1.83;1.42;;;4.10;38.50;;;;;;5032940;28;20277;-56
2023/12/05 08:16:08;;;;;;;2.17;1.90;;;4.10;38.70;;;;;;5032960;28;20265;-50
2023/12/05 08:18:34;;;;;;;4.10;3.05;;;4.20;38.70;;;;;;5032811;28;20283;-57
2023/12/05 08:21:00;;;;;;;1.30;1.00;;;4.20;38.80;;;;;;5032862;28;20269;-51
2023/12/05 08:23:26;;;;;;;4.67;0.93;;;4.20;39.10;;;;;;5032960;28;20676;-54
2023/12/05 08:25:52;;;;;;;1.93;1.53;;;4.20;39.30;;;;;;5032745;28;20170;-58
2023/12/05 08:28:17;;;;;;;1.07;0.97;;;4.10;39.50;;;;;;5032799;28;20405;-50
2023/12/05 08:30:43;;;;;;;1.97;1.20;;;4.10;39.90;;;;;;5032720;28;20401;-57
2023/12/05 08:33:09;;;;;;;0.90;0.60;;;4.10;40.00;;;;;;5032596;28;20186;-57
2023/12/05 08:35:35;;;;;;;3.03;2.43;;;4.10;40.40;;;;;;5032596;28;20652;-50
2023/12/05 08:38:00;;;;;;;3.23;0.90;;;4.10;40.40;;;;;;5032346;28;20452;-54
2023/12/05 08:40:26;;;;;;;4.60;2.53;;;4.10;40.90;;;;;;5032149;28;20170;-56
2023/12/05 08:42:52;;;;;;;4.50;2.20;;;4.00;41.10;;;;;;5032498;28;20194;-52
2023/12/05 08:45:18;;;;;;;2.03;1.55;;;4.00;40.80;;;;;;5032635;28;20579;-51
2023/12/05 08:47:44;;;;;;;2.88;2.42;;;4.10;40.90;;;;;;5032270;28;20260;-55
2023/12/05 08:50:10;;;;;;;7.53;1.50;;;4.10;40.90;;;;;;5032429;28;20173;-53
2023/12/05 08:52:36;;;;;;;4.27;2.23;;;4.10;40.90;;;;;;5032262;28;20564;-50
2023/12/05 08:55:02;;;;;;;0.80;0.50;;;4.10;40.80;;;;;;5032383;28;20404;-57
2023/12/05 08:57:28;;;;;;;0.90;0.70;;;4.10;40.50;;;;;;5032037;28;20197;-51
2023/12/05 08:59:53;;;;;;;5.00;3.23;;;4.20;40.70;;;;;;5032318;28;20170;-50
2023/12/05 09:02:20;;;;;;;1.30;1.07;;;4.10;40.80;;;;;;5032140;28;20436;-58
2023/12/05 09:04:45;;;;;;;3.72;3.42;;;4.10;40.80;;;;;;5032148;28;20814;-57
2023/12/05 09:07:11;;;;;;;2.20;2.10;;;4.20;41.40;;;;;;5032080;28;20178;-51
2023/12/05 09:09:41;;;;;;;3.97;2.40;;;4.20;40.50;;;;;;5032158;28;20495;-54
2023/12/05 09:12:07;;;;;;;5.00;1.48;;;4.20;40.50;;;;;;5032247;28;20166;-57
2023/12/05 09:14:34;;;;;;;2.97;1.52;;;4.10;40.80;;;;;;5032101;28;20213;-53
2023/12/05 09:17:01;;;;;;;3.10;1.17;;;4.20;41.20;;;;;;5031758;28;20707;-54
2023/12/05 09:19:27;;;;;;;1.98;1.88;;;4.20;41.20;;;;;;5030798;28;20174;-54
2023/12/05 09:21:53;;;;;;;2.75;1.45;;;4.30;41.00;;;;;;5030595;28;20722;-50
2023/12/05 09:24:19;;;;;;;1.00;0.77;;;4.20;40.80;;;;;;5031971;28;20220;-53
2023/12/05 09:26:44;;;;;;;2.67;2.50;;;4.30;40.60;;;;;;5030556;28;20178;-57
2023/12/05 09:29:10;;;;;;;1.53;1.30;;;4.30;40.70;;;;;;5031965;28;20435;-53
2023/12/05 09:31:36;;;;;;;1.73;1.63;;;4.20;40.70;;;;;;5031779;28;20412;-55
2023/12/05 09:34:05;;;;;;;1.53;1.17;;;4.20;40.80;;;;;;5031835;28;20760;-56
2023/12/05 09:36:30;;;;;;;1.73;1.55;;;4.20;41.40;;;;;;5031722;28;20174;-54
2023/12/05 09:38:56;;;;;;;1.20;0.95;;;4.30;41.20;;;;;;5031816;28;20619;-56
2023/12/05 09:41:23;;;;;;;10.07;2.00;;;4.30;41.10;;;;;;5031779;28;20162;-52
2023/12/05 09:43:51;;;;;;;3.17;2.03;;;4.40;41.00;;;;;;5031735;28;20187;-52
2023/12/05 09:46:20;;;;;;;2.03;1.85;;;4.50;40.80;;;;;;5031498;28;20174;-55
2023/12/05 09:48:47;;;;;;;1.30;1.15;;;4.40;41.00;;;;;;5031745;28;20197;-54
2023/12/05 09:51:16;;;;;;;2.80;2.35;;;4.50;41.40;;;;;;5034740;28;20197;-52
2023/12/05 09:53:46;;;;;;;1.45;0.75;;;4.50;41.60;;;;;;5035658;28;20217;-53
2023/12/05 09:56:15;;;;;;;2.95;2.75;;;4.40;41.90;;;;;;5035561;28;20256;-53
2023/12/05 09:58:45;;;;;;;2.25;1.48;;;4.50;42.20;;;;;;5035411;28;20198;-53
2023/12/05 10:01:15;;;;;;;3.38;2.38;;;4.40;42.10;;;;;;5035596;28;20190;-54
2023/12/05 10:03:43;;;;;;;3.25;2.03;;;4.30;42.60;;;;;;5035470;28;20755;-56
2023/12/05 10:06:10;;;;;;;2.97;2.50;;;4.30;43.20;;;;;;5035376;28;20644;-50
2023/12/05 10:08:37;;;;;;;1.23;1.13;;;4.30;43.30;;;;;;5035446;28;20671;-50
2023/12/05 10:11:05;;;;;;;2.30;1.25;;;4.40;43.20;;;;;;5035352;28;20193;-58
2023/12/05 10:13:31;;;;;;;4.97;1.90;;;4.40;43.20;;;;;;5035322;28;20198;-58
2023/12/05 10:15:59;;;;;;;1.25;1.15;;;4.40;43.30;;;;;;5035243;28;20220;-51
2023/12/05 10:18:29;;;;;;;1.17;1.08;;;4.50;43.40;;;;;;5035246;28;20231;-58
2023/12/05 10:20:55;;;;;;;3.35;1.70;;;4.60;43.40;;;;;;5035194;28;20190;-57
2023/12/05 10:23:22;;;;;;;1.53;1.03;;;4.60;43.10;;;;;;5035188;28;20202;-51
2023/12/05 10:25:47;;;;;;;2.20;1.90;;;4.60;43.10;;;;;;5034834;28;20184;-59
2023/12/05 10:28:13;;;;;;;4.50;1.60;;;4.60;43.20;;;;;;5035141;28;20224;-56
2023/12/05 10:30:39;;;;;;;4.13;3.80;;;4.60;43.20;;;;;;5035003;28;20440;-52
2023/12/05 10:33:09;;;;;;;3.92;1.13;;;4.60;42.90;;;;;;5034901;28;20201;-56
2023/12/05 10:35:35;;;;;;;1.00;0.70;;;4.60;43.20;;;;;;5034785;28;20174;-50
2023/12/05 10:38:08;;;;;;;1.70;1.20;;;4.60;43.00;;;;;;5034865;28;20588;-51
2023/12/05 10:41:00;;;;;;;2.53;2.17;;;4.70;42.90;;;;;;5035119;28;20181;-58
2023/12/05 10:43:31;;;;;;;2.30;2.13;;;4.70;42.30;;;;;;5033644;28;20198;-51
2023/12/05 10:45:57;;;;;;;2.28;2.08;;;4.80;42.10;;;;;;5034755;28;20201;-53
2023/12/05 10:48:23;;;;;;;15.80;3.97;;;4.80;42.00;;;;;;5034665;28;20228;-49
2023/12/05 10:50:53;;;;;;;1.57;1.00;;;4.80;41.70;;;;;;5034592;28;20170;-53
2023/12/05 10:53:19;;;;;;;2.03;1.92;;;4.80;41.40;;;;;;5034572;28;20424;-56
2023/12/05 10:55:45;;;;;;;2.30;1.95;;;4.80;41.30;;;;;;5034391;28;20645;-51
2023/12/05 10:58:11;;;;;;;10.18;1.75;;;4.90;40.70;;;;;;5034500;28;20205;-52
2023/12/05 11:00:39;;;;;;;1.60;1.50;;;4.80;40.80;;;;;;5034557;28;20300;-59
2023/12/05 11:03:05;;;;;;;4.43;1.77;;;4.70;40.80;;;;;;5033647;28;20186;-58
2023/12/05 11:05:33;;;;;;;2.92;2.72;;;4.80;40.80;;;;;;5034313;28;20170;-52
2023/12/05 11:07:59;;;;;;;5.18;2.50;;;4.80;40.60;;;;;;5034387;28;20532;-55
2023/12/05 11:10:27;;;;;;;11.38;3.65;;;4.90;40.70;;;;;;5034292;28;20837;-56
2023/12/05 11:12:54;;;;;;;11.60;3.30;;;4.90;40.30;;;;;;5034235;28;20197;-52
2023/12/05 11:15:39;;;;;;;3.05;2.22;;;4.80;40.50;;;;;;5034259;28;20178;-52
2023/12/05 11:18:21;;;;;;;7.03;3.67;;;5.00;40.20;;;;;;5034121;28;20698;-57
2023/12/05 11:21:02;;;;;;;6.57;1.48;;;5.00;40.50;;;;;;5034027;28;20220;-50
2023/12/05 11:23:51;;;;;;;1.17;1.02;;;5.10;40.40;;;;;;5034038;28;20682;-57
2023/12/05 11:26:38;;;;;;;2.15;1.90;;;5.10;39.80;;;;;;5033842;28;20178;-54
2023/12/05 11:29:41;;;;;;;4.95;2.90;;;5.10;39.80;;;;;;5033984;28;20181;-51
2023/12/05 11:32:43;;;;;;;2.10;1.90;;;5.20;40.00;;;;;;5033946;28;20193;-55
2023/12/05 11:35:16;;;;;;;5.90;1.98;;;5.10;39.90;;;;;;5033915;28;20548;-56
2023/12/05 11:38:09;;;;;;;15.20;3.00;;;5.10;40.20;;;;;;5033562;28;20190;-51
2023/12/05 11:40:35;;;;;;;2.10;1.42;;;5.10;39.80;;;;;;5033684;28;20166;-52
2023/12/05 11:43:09;;;;;;;3.53;2.70;;;5.20;39.70;;;;;;5033609;28;20229;-57
2023/12/05 11:45:40;;;;;;;3.90;3.55;;;5.20;39.60;;;;;;5033557;28;20220;-52
2023/12/05 11:48:09;;;;;;;0.80;0.40;;;5.20;39.50;;;;;;5033658;28;20170;-51
2023/12/05 11:50:46;;;;;;;4.78;2.00;;;5.10;39.80;;;;;;5033598;28;20536;-53
2023/12/05 11:53:14;;;;;;;3.83;1.42;;;5.10;39.80;;;;;;5033312;28;20684;-50
2023/12/05 11:55:42;;;;;;;7.72;1.95;;;5.10;39.70;;;;;;5033339;28;20722;-54
2023/12/05 11:58:40;;;;;;;0.90;0.63;;;5.20;40.00;;;;;;5033344;28;20198;-57
2023/12/05 12:01:11;;;;;;;2.75;2.55;;;5.30;40.60;;;;;;5021444;28;20544;-52
2023/12/05 12:03:52;;;;;;;2.65;2.08;;;5.30;39.90;;;;;;5033150;28;20190;-54
2023/12/05 12:06:20;;;;;;;8.82;3.20;;;5.30;39.60;;;;;;5033187;28;20197;-50
2023/12/05 12:08:53;;;;;;;3.88;3.55;;;5.40;39.90;;;;;;5033150;28;20201;-60
2023/12/05 12:11:23;;;;;;;4.50;1.70;;;5.40;40.00;;;;;;5033196;28;20162;-56
2023/12/05 12:13:50;;;;;;;6.82;3.03;;;5.30;40.30;;;;;;5032161;28;20243;-50
2023/12/05 12:16:19;;;;;;;9.70;4.55;;;5.30;40.00;;;;;;5032929;28;20202;-57
2023/12/05 12:18:46;;;;;;;1.65;1.55;;;5.30;40.30;;;;;;5032934;28;20201;-52
2023/12/05 12:21:12;;;;;;;2.42;2.08;;;5.30;40.60;;;;;;5032881;28;20209;-54
2023/12/05 12:23:38;;;;;;;2.70;2.50;;;5.40;40.10;;;;;;5032825;28;20612;-52
2023/12/05 12:26:09;;;;;;;2.35;1.50;;;5.60;40.20;;;;;;5032731;28;20401;-51
2023/12/05 12:28:35;;;;;;;2.17;2.05;;;5.60;39.70;;;;;;5032897;28;20695;-54
2023/12/05 12:31:02;;;;;;;2.75;2.05;;;5.60;39.80;;;;;;5032805;28;20192;-56
2023/12/05 12:33:46;;;;;;;1.55;1.25;;;5.70;39.80;;;;;;5032744;28;20190;-52
2023/12/05 12:36:12;;;;;;;16.17;2.80;;;5.70;39.80;;;;;;5032615;28;20170;-59
2023/12/05 12:38:39;;;;;;;3.58;3.25;;;5.60;39.70;;;;;;5032557;28;20208;-55
2023/12/05 12:41:05;;;;;;;1.30;0.98;;;5.70;39.80;;;;;;5032535;28;20164;-52
2023/12/05 12:43:33;;;;;;;10.27;3.03;;;5.70;39.80;;;;;;5032519;28;20667;-54
2023/12/05 12:45:59;;;;;;;2.90;1.60;;;5.80;39.60;;;;;;5032481;28;20257;-58
2023/12/05 12:48:26;;;;;;;2.40;1.23;;;5.80;39.60;;;;;;5032473;28;20185;-51
2023/12/05 12:50:53;;;;;;;4.93;3.15;;;5.80;39.70;;;;;;5032437;28;20209;-58
2023/12/05 12:53:19;;;;;;;12.30;4.50;;;5.80;39.70;;;;;;5032354;28;20193;-59
2023/12/05 12:55:46;;;;;;;4.70;2.00;;;6.00;39.70;;;;;;5032190;28;20169;-52
2023/12/05 12:58:11;;;;;;;5.13;2.70;;;6.10;39.70;;;;;;5032277;28;20285;-56